sensor_id;sensor_type;location;lat;lon;timestamp;pressure;altitude;pressure_sealevel;temperature;humidity
60725;BME280;59881;36.722;-4.462;2022-12-18T00:02:11;101169.47;;;7.65;78.87
60725;BME280;59881;36.722;-4.462;2022-12-18T00:04:37;101729.53;;;10.38;78.67
60725;BME280;59881;36.722;-4.462;2022-12-18T00:07:03;101218.03;;;7.16;78.50
60725;BME280;59881;36.722;-4.462;2022-12-18T00:09:28;101140.63;;;7.65;78.58
60725;BME280;59881;36.722;-4.462;2022-12-18T00:11:54;101583.56;;;10.42;79.36
60725;BME280;59881;36.722;-4.462;2022-12-18T00:14:19;101487.53;;;9.79;79.80
60725;BME280;59881;36.722;-4.462;2022-12-18T00:16:45;101317.22;;;8.97;80.08
60725;BME280;59881;36.722;-4.462;2022-12-18T00:19:12;101587.47;;;10.68;80.77
60725;BME280;59881;36.722;-4.462;2022-12-18T00:21:38;101615.44;;;10.70;80.70
60725;BME280;59881;36.722;-4.462;2022-12-18T00:24:04;101398.09;;;9.62;80.84
60725;BME280;59881;36.722;-4.462;2022-12-18T00:26:32;101579.41;;;10.71;81.27
60725;BME280;59881;36.722;-4.462;2022-12-18T00:29:10;101573.00;;;10.59;81.01
60725;BME280;59881;36.722;-4.462;2022-12-18T00:31:37;101104.13;;;7.61;81.02
60725;BME280;59881;36.722;-4.462;2022-12-18T00:34:03;101235.50;;;8.31;81.55
60725;BME280;59881;36.722;-4.462;2022-12-18T00:36:31;101585.22;;;10.60;81.82
60725;BME280;59881;36.722;-4.462;2022-12-18T00:38:59;100595.91;;;4.49;81.10
60725;BME280;59881;36.722;-4.462;2022-12-18T00:41:25;101618.28;;;10.50;81.92
60725;BME280;59881;36.722;-4.462;2022-12-18T00:44:12;100857.00;;;5.31;81.43
60725;BME280;59881;36.722;-4.462;2022-12-18T00:46:38;100830.88;;;5.31;81.57
60725;BME280;59881;36.722;-4.462;2022-12-18T00:49:04;101480.53;;;9.07;81.56
60725;BME280;59881;36.722;-4.462;2022-12-18T00:51:30;101585.91;;;10.30;82.02
60725;BME280;59881;36.722;-4.462;2022-12-18T00:53:55;101586.09;;;10.26;81.79
60725;BME280;59881;36.722;-4.462;2022-12-18T00:56:21;101577.66;;;10.19;82.33
60725;BME280;59881;36.722;-4.462;2022-12-18T00:58:47;101563.47;;;10.04;82.38
60725;BME280;59881;36.722;-4.462;2022-12-18T01:01:12;101451.88;;;9.39;82.73
60725;BME280;59881;36.722;-4.462;2022-12-18T01:03:38;101117.69;;;7.33;82.37
60725;BME280;59881;36.722;-4.462;2022-12-18T01:06:11;101494.34;;;9.48;82.74
60725;BME280;59881;36.722;-4.462;2022-12-18T01:08:37;100930.53;;;6.06;82.93
60725;BME280;59881;36.722;-4.462;2022-12-18T01:11:11;101696.19;;;10.00;83.72
60725;BME280;59881;36.722;-4.462;2022-12-18T01:13:38;101314.31;;;8.10;83.82
60725;BME280;59881;36.722;-4.462;2022-12-18T01:16:04;100712.66;;;4.65;83.92
60725;BME280;59881;36.722;-4.462;2022-12-18T01:18:30;100952.91;;;5.91;84.97
60725;BME280;59881;36.722;-4.462;2022-12-18T01:20:55;100519.75;;;3.58;85.58
60725;BME280;59881;36.722;-4.462;2022-12-18T01:23:21;101079.69;;;6.25;86.01
60725;BME280;59881;36.722;-4.462;2022-12-18T01:25:46;101160.47;;;7.52;85.95
60725;BME280;59881;36.722;-4.462;2022-12-18T01:28:12;101117.56;;;6.36;85.46
60725;BME280;59881;36.722;-4.462;2022-12-18T01:30:37;101477.13;;;9.24;85.20
60725;BME280;59881;36.722;-4.462;2022-12-18T01:33:06;101424.47;;;8.89;84.92
60725;BME280;59881;36.722;-4.462;2022-12-18T01:35:31;101135.69;;;6.41;84.01
60725;BME280;59881;36.722;-4.462;2022-12-18T01:37:57;100905.56;;;5.35;83.63
60725;BME280;59881;36.722;-4.462;2022-12-18T01:40:23;101733.47;;;9.91;82.90
60725;BME280;59881;36.722;-4.462;2022-12-18T01:42:53;100982.38;;;6.16;81.91
60725;BME280;59881;36.722;-4.462;2022-12-18T01:45:23;101604.25;;;9.78;81.62
60725;BME280;59881;36.722;-4.462;2022-12-18T01:48:07;101642.25;;;9.72;81.64
60725;BME280;59881;36.722;-4.462;2022-12-18T01:50:37;101589.91;;;9.66;81.77
60725;BME280;59881;36.722;-4.462;2022-12-18T01:53:11;101494.75;;;9.03;81.39
60725;BME280;59881;36.722;-4.462;2022-12-18T01:55:43;101063.28;;;6.21;80.96
60725;BME280;59881;36.722;-4.462;2022-12-18T01:58:12;101188.97;;;7.22;80.83
60725;BME280;59881;36.722;-4.462;2022-12-18T02:00:37;101420.81;;;8.55;81.06
60725;BME280;59881;36.722;-4.462;2022-12-18T02:03:03;100927.25;;;5.37;80.32
60725;BME280;59881;36.722;-4.462;2022-12-18T02:05:58;101673.69;;;9.57;80.55
60725;BME280;59881;36.722;-4.462;2022-12-18T02:08:33;101234.69;;;6.31;80.05
60725;BME280;59881;36.722;-4.462;2022-12-18T02:14:11;101619.81;;;9.46;80.38
60725;BME280;59881;36.722;-4.462;2022-12-18T02:28:16;101487.44;;;8.72;80.27
60725;BME280;59881;36.722;-4.462;2022-12-18T02:30:47;101337.56;;;7.80;79.79
60725;BME280;59881;36.722;-4.462;2022-12-18T02:33:15;101739.38;;;9.58;80.39
60725;BME280;59881;36.722;-4.462;2022-12-18T02:35:42;101244.06;;;6.57;80.03
60725;BME280;59881;36.722;-4.462;2022-12-18T02:38:10;101358.38;;;7.64;80.57
60725;BME280;59881;36.722;-4.462;2022-12-18T02:40:38;101646.44;;;9.58;81.22
60725;BME280;59881;36.722;-4.462;2022-12-18T02:43:13;101028.94;;;5.86;80.69
60725;BME280;59881;36.722;-4.462;2022-12-18T02:45:50;101640.19;;;9.60;81.43
60725;BME280;59881;36.722;-4.462;2022-12-18T02:48:18;101689.50;;;9.17;81.26
60725;BME280;59881;36.722;-4.462;2022-12-18T02:53:36;101646.59;;;9.55;81.06
60725;BME280;59881;36.722;-4.462;2022-12-18T02:56:11;101716.28;;;8.86;80.92
60725;BME280;59881;36.722;-4.462;2022-12-18T03:06:49;101658.25;;;9.49;81.09
60725;BME280;59881;36.722;-4.462;2022-12-18T03:09:21;101759.78;;;9.53;80.44
60725;BME280;59881;36.722;-4.462;2022-12-18T03:11:54;101077.19;;;5.79;78.43
60725;BME280;59881;36.722;-4.462;2022-12-18T03:14:41;101533.41;;;8.22;77.87
60725;BME280;59881;36.722;-4.462;2022-12-18T03:17:10;101498.88;;;8.52;77.66
60725;BME280;59881;36.722;-4.462;2022-12-18T03:19:40;100939.03;;;5.05;77.29
60725;BME280;59881;36.722;-4.462;2022-12-18T03:22:07;101416.91;;;7.85;77.07
60725;BME280;59881;36.722;-4.462;2022-12-18T03:24:34;101297.84;;;7.09;76.96
60725;BME280;59881;36.722;-4.462;2022-12-18T03:27:06;101249.09;;;6.19;77.43
60725;BME280;59881;36.722;-4.462;2022-12-18T03:29:39;101647.97;;;8.23;77.71
60725;BME280;59881;36.722;-4.462;2022-12-18T03:32:09;101195.81;;;5.76;77.80
60725;BME280;59881;36.722;-4.462;2022-12-18T03:34:38;101727.75;;;9.24;78.62
60725;BME280;59881;36.722;-4.462;2022-12-18T03:37:06;101684.84;;;9.24;78.49
60725;BME280;59881;36.722;-4.462;2022-12-18T03:39:33;101519.34;;;8.23;78.36
60725;BME280;59881;36.722;-4.462;2022-12-18T03:42:09;100154.88;;;-0.79;77.27
60725;BME280;59881;36.722;-4.462;2022-12-18T03:44:57;101689.72;;;9.13;78.81
60725;BME280;59881;36.722;-4.462;2022-12-18T03:47:31;101693.97;;;9.15;78.55
60725;BME280;59881;36.722;-4.462;2022-12-18T03:55:14;101464.13;;;7.85;78.33
60725;BME280;59881;36.722;-4.462;2022-12-18T03:57:41;101390.03;;;6.74;77.05
60725;BME280;59881;36.722;-4.462;2022-12-18T04:00:09;101691.66;;;9.28;76.38
60725;BME280;59881;36.722;-4.462;2022-12-18T04:02:38;101685.53;;;9.27;75.79
60725;BME280;59881;36.722;-4.462;2022-12-18T04:05:07;100843.47;;;3.13;74.97
60725;BME280;59881;36.722;-4.462;2022-12-18T04:07:35;100803.28;;;3.70;74.37
60725;BME280;59881;36.722;-4.462;2022-12-18T04:10:02;101688.31;;;9.24;75.13
60725;BME280;59881;36.722;-4.462;2022-12-18T04:12:29;101697.91;;;9.25;75.40
60725;BME280;59881;36.722;-4.462;2022-12-18T04:14:55;100995.06;;;4.49;74.97
60725;BME280;59881;36.722;-4.462;2022-12-18T04:17:21;101824.31;;;9.21;74.98
60725;BME280;59881;36.722;-4.462;2022-12-18T04:19:46;101086.47;;;5.42;75.13
60725;BME280;59881;36.722;-4.462;2022-12-18T04:22:12;101462.31;;;7.24;75.34
60725;BME280;59881;36.722;-4.462;2022-12-18T04:24:37;101867.34;;;8.98;76.07
60725;BME280;59881;36.722;-4.462;2022-12-18T04:27:03;100864.31;;;3.63;75.67
60725;BME280;59881;36.722;-4.462;2022-12-18T04:29:29;101102.59;;;5.31;76.42
60725;BME280;59881;36.722;-4.462;2022-12-18T04:31:54;101275.75;;;6.29;76.56
60725;BME280;59881;36.722;-4.462;2022-12-18T04:34:21;101523.16;;;7.53;76.93
60725;BME280;59881;36.722;-4.462;2022-12-18T04:36:46;101367.19;;;5.35;76.95
60725;BME280;59881;36.722;-4.462;2022-12-18T04:39:12;101725.63;;;7.84;77.78
60725;BME280;59881;36.722;-4.462;2022-12-18T04:41:37;101924.53;;;8.69;77.91
60725;BME280;59881;36.722;-4.462;2022-12-18T04:44:03;101385.63;;;5.30;78.76
60725;BME280;59881;36.722;-4.462;2022-12-18T04:46:29;101301.78;;;6.10;78.72
60725;BME280;59881;36.722;-4.462;2022-12-18T04:48:55;101753.13;;;8.64;79.40
60725;BME280;59881;36.722;-4.462;2022-12-18T04:51:20;100967.44;;;3.17;79.61
60725;BME280;59881;36.722;-4.462;2022-12-18T04:53:46;101677.81;;;7.54;79.89
60725;BME280;59881;36.722;-4.462;2022-12-18T04:56:14;101735.53;;;8.66;80.46
60725;BME280;59881;36.722;-4.462;2022-12-18T04:58:41;101566.28;;;7.67;80.81
60725;BME280;59881;36.722;-4.462;2022-12-18T05:01:07;101737.97;;;8.70;81.28
60725;BME280;59881;36.722;-4.462;2022-12-18T05:03:34;101736.25;;;8.69;81.24
60725;BME280;59881;36.722;-4.462;2022-12-18T05:06:00;101737.09;;;8.70;81.29
60725;BME280;59881;36.722;-4.462;2022-12-18T05:08:25;101310.22;;;6.17;80.96
60725;BME280;59881;36.722;-4.462;2022-12-18T05:11:05;101320.69;;;6.17;80.88
60725;BME280;59881;36.722;-4.462;2022-12-18T05:13:32;101740.03;;;8.62;80.96
60725;BME280;59881;36.722;-4.462;2022-12-18T05:15:58;101736.63;;;8.60;81.15
60725;BME280;59881;36.722;-4.462;2022-12-18T05:18:24;101739.41;;;8.57;81.10
60725;BME280;59881;36.722;-4.462;2022-12-18T05:20:51;101741.34;;;8.52;81.04
60725;BME280;59881;36.722;-4.462;2022-12-18T05:23:17;101170.28;;;4.64;80.58
60725;BME280;59881;36.722;-4.462;2022-12-18T05:25:50;101742.69;;;8.40;80.94
60725;BME280;59881;36.722;-4.462;2022-12-18T05:28:16;101582.78;;;7.25;81.23
60725;BME280;59881;36.722;-4.462;2022-12-18T05:30:41;101574.91;;;7.25;81.72
60725;BME280;59881;36.722;-4.462;2022-12-18T05:33:07;101532.47;;;6.94;81.63
60725;BME280;59881;36.722;-4.462;2022-12-18T05:35:32;101757.25;;;8.25;82.04
60725;BME280;59881;36.722;-4.462;2022-12-18T05:37:58;101646.13;;;6.90;82.19
60725;BME280;59881;36.722;-4.462;2022-12-18T05:40:23;101697.16;;;7.52;82.30
60725;BME280;59881;36.722;-4.462;2022-12-18T05:42:49;101379.25;;;5.64;82.59
60725;BME280;59881;36.722;-4.462;2022-12-18T05:45:14;101766.31;;;8.18;83.20
60725;BME280;59881;36.722;-4.462;2022-12-18T05:47:40;101797.84;;;8.17;83.59
60725;BME280;59881;36.722;-4.462;2022-12-18T05:50:06;100968.53;;;3.36;83.08
60725;BME280;59881;36.722;-4.462;2022-12-18T05:52:32;101410.69;;;4.53;83.56
60725;BME280;59881;36.722;-4.462;2022-12-18T05:54:57;101366.81;;;5.71;83.52
60725;BME280;59881;36.722;-4.462;2022-12-18T05:57:24;101350.78;;;5.56;84.06
60725;BME280;59881;36.722;-4.462;2022-12-18T05:59:49;101803.66;;;7.56;84.52
60725;BME280;59881;36.722;-4.462;2022-12-18T06:02:15;101078.66;;;3.41;84.35
60725;BME280;59881;36.722;-4.462;2022-12-18T06:04:40;100696.63;;;1.57;84.04
60725;BME280;59881;36.722;-4.462;2022-12-18T06:07:06;100595.63;;;0.88;83.98
60725;BME280;59881;36.722;-4.462;2022-12-18T06:09:31;101631.06;;;6.46;85.33
60725;BME280;59881;36.722;-4.462;2022-12-18T06:11:57;102013.22;;;8.14;86.10
60725;BME280;59881;36.722;-4.462;2022-12-18T06:14:23;101549.16;;;6.17;86.17
60725;BME280;59881;36.722;-4.462;2022-12-18T06:16:50;101502.78;;;6.46;85.88
60725;BME280;59881;36.722;-4.462;2022-12-18T06:19:17;101793.34;;;8.20;85.82
60725;BME280;59881;36.722;-4.462;2022-12-18T06:21:43;101516.50;;;6.53;85.77
60725;BME280;59881;36.722;-4.462;2022-12-18T06:24:08;101839.03;;;8.15;85.56
60725;BME280;59881;36.722;-4.462;2022-12-18T06:26:34;101829.78;;;8.06;86.03
60725;BME280;59881;36.722;-4.462;2022-12-18T06:29:01;101550.16;;;6.40;85.67
60725;BME280;59881;36.722;-4.462;2022-12-18T06:31:27;100762.59;;;1.81;85.21
60725;BME280;59881;36.722;-4.462;2022-12-18T06:33:53;101818.59;;;8.01;85.96
60725;BME280;59881;36.722;-4.462;2022-12-18T06:36:18;101917.50;;;7.99;86.12
60725;BME280;59881;36.722;-4.462;2022-12-18T06:38:44;102106.53;;;7.97;86.08
60725;BME280;59881;36.722;-4.462;2022-12-18T06:41:12;101592.28;;;6.57;86.08
60725;BME280;59881;36.722;-4.462;2022-12-18T06:43:38;101667.72;;;6.96;85.87
60725;BME280;59881;36.722;-4.462;2022-12-18T06:46:04;101857.41;;;7.93;86.54
60725;BME280;59881;36.722;-4.462;2022-12-18T06:48:31;101829.38;;;7.93;86.49
60725;BME280;59881;36.722;-4.462;2022-12-18T06:50:57;101702.09;;;7.12;86.39
60725;BME280;59881;36.722;-4.462;2022-12-18T06:53:23;101530.81;;;5.92;86.56
60725;BME280;59881;36.722;-4.462;2022-12-18T06:55:48;101907.75;;;7.27;86.54
60725;BME280;59881;36.722;-4.462;2022-12-18T06:58:14;101045.34;;;2.93;86.45
60725;BME280;59881;36.722;-4.462;2022-12-18T07:00:40;101398.53;;;4.82;86.42
60725;BME280;59881;36.722;-4.462;2022-12-18T07:03:05;101379.06;;;4.04;86.39
60725;BME280;59881;36.722;-4.462;2022-12-18T07:05:31;101203.34;;;4.10;86.61
60725;BME280;59881;36.722;-4.462;2022-12-18T07:07:57;101892.44;;;7.90;87.51
60725;BME280;59881;36.722;-4.462;2022-12-18T07:10:23;101984.09;;;7.96;87.65
60725;BME280;59881;36.722;-4.462;2022-12-18T07:12:48;101187.81;;;3.49;87.12
60725;BME280;59881;36.722;-4.462;2022-12-18T07:15:14;101167.91;;;4.03;87.20
60725;BME280;59881;36.722;-4.462;2022-12-18T07:17:39;101845.44;;;8.07;87.53
60725;BME280;59881;36.722;-4.462;2022-12-18T07:20:05;101525.22;;;4.64;87.15
60725;BME280;59881;36.722;-4.462;2022-12-18T07:22:31;101980.78;;;8.15;87.36
60725;BME280;59881;36.722;-4.462;2022-12-18T07:24:56;102048.00;;;8.20;87.27
60725;BME280;59881;36.722;-4.462;2022-12-18T07:27:22;101859.59;;;8.27;87.55
60725;BME280;59881;36.722;-4.462;2022-12-18T07:29:48;101855.81;;;8.34;87.05
60725;BME280;59881;36.722;-4.462;2022-12-18T07:32:13;101856.84;;;8.54;86.94
60725;BME280;59881;36.722;-4.462;2022-12-18T07:34:39;101561.84;;;6.78;86.36
60725;BME280;59881;36.722;-4.462;2022-12-18T07:37:05;101304.13;;;6.40;84.81
60725;BME280;59881;36.722;-4.462;2022-12-18T07:39:31;101075.56;;;6.19;81.91
60725;BME280;59881;36.722;-4.462;2022-12-18T07:41:56;101843.84;;;12.71;77.83
60725;BME280;59881;36.722;-4.462;2022-12-18T07:44:40;101767.03;;;13.48;71.48
60725;BME280;59881;36.722;-4.462;2022-12-18T07:47:06;101742.69;;;14.53;65.60
60725;BME280;59881;36.722;-4.462;2022-12-18T07:49:31;101819.91;;;16.16;60.08
60725;BME280;59881;36.722;-4.462;2022-12-18T07:51:57;101771.59;;;16.94;55.72
60725;BME280;59881;36.722;-4.462;2022-12-18T07:54:24;101815.97;;;18.19;51.28
60725;BME280;59881;36.722;-4.462;2022-12-18T07:56:50;101900.28;;;19.09;47.97
60725;BME280;59881;36.722;-4.462;2022-12-18T07:59:16;101729.22;;;19.11;45.71
60725;BME280;59881;36.722;-4.462;2022-12-18T08:01:42;101795.53;;;20.67;43.07
60725;BME280;59881;36.722;-4.462;2022-12-18T08:04:07;101938.47;;;21.54;41.26
60725;BME280;59881;36.722;-4.462;2022-12-18T08:06:33;101338.25;;;19.51;39.38
60725;BME280;59881;36.722;-4.462;2022-12-18T08:08:58;101821.81;;;23.23;37.65
60725;BME280;59881;36.722;-4.462;2022-12-18T08:11:27;101831.47;;;23.42;35.95
60725;BME280;59881;36.722;-4.462;2022-12-18T08:13:53;101371.41;;;19.77;36.10
60725;BME280;59881;36.722;-4.462;2022-12-18T08:16:19;101836.16;;;22.96;36.37
60725;BME280;59881;36.722;-4.462;2022-12-18T08:18:45;101662.75;;;21.77;36.08
60725;BME280;59881;36.722;-4.462;2022-12-18T08:21:13;101718.19;;;23.37;34.98
60725;BME280;59881;36.722;-4.462;2022-12-18T08:23:39;101840.56;;;25.01;33.09
60725;BME280;59881;36.722;-4.462;2022-12-18T08:26:05;101845.38;;;25.63;32.69
60725;BME280;59881;36.722;-4.462;2022-12-18T08:28:31;101756.97;;;25.73;30.88
60725;BME280;59881;36.722;-4.462;2022-12-18T08:30:56;101560.69;;;25.67;29.42
60725;BME280;59881;36.722;-4.462;2022-12-18T08:33:22;101735.09;;;27.21;28.67
60725;BME280;59881;36.722;-4.462;2022-12-18T08:35:48;101688.63;;;27.69;27.54
60725;BME280;59881;36.722;-4.462;2022-12-18T08:38:13;101800.91;;;29.11;26.96
60725;BME280;59881;36.722;-4.462;2022-12-18T08:40:39;101506.06;;;28.00;25.30
60725;BME280;59881;36.722;-4.462;2022-12-18T08:43:04;101856.28;;;30.34;25.17
60725;BME280;59881;36.722;-4.462;2022-12-18T08:45:48;101499.31;;;28.17;24.54
60725;BME280;59881;36.722;-4.462;2022-12-18T08:48:14;101871.44;;;31.43;23.73
60725;BME280;59881;36.722;-4.462;2022-12-18T08:50:39;101702.19;;;30.41;23.51
60725;BME280;59881;36.722;-4.462;2022-12-18T08:53:05;101782.63;;;31.94;22.11
60725;BME280;59881;36.722;-4.462;2022-12-18T08:55:30;101757.38;;;32.94;20.91
60725;BME280;59881;36.722;-4.462;2022-12-18T08:57:56;101898.28;;;34.19;20.57
60725;BME280;59881;36.722;-4.462;2022-12-18T09:00:21;101525.50;;;32.32;20.00
60725;BME280;59881;36.722;-4.462;2022-12-18T09:02:47;101671.13;;;33.90;19.58
60725;BME280;59881;36.722;-4.462;2022-12-18T09:05:12;101875.09;;;36.05;18.32
60725;BME280;59881;36.722;-4.462;2022-12-18T09:07:38;101978.41;;;36.69;17.68
60725;BME280;59881;36.722;-4.462;2022-12-18T09:10:04;101733.56;;;36.16;17.21
60725;BME280;59881;36.722;-4.462;2022-12-18T09:12:30;101907.84;;;37.54;16.78
60725;BME280;59881;36.722;-4.462;2022-12-18T09:14:55;101665.47;;;36.30;16.33
60725;BME280;59881;36.722;-4.462;2022-12-18T09:17:22;101885.13;;;38.52;15.74
60725;BME280;59881;36.722;-4.462;2022-12-18T09:19:47;101646.94;;;36.98;15.88
60725;BME280;59881;36.722;-4.462;2022-12-18T09:22:13;101634.81;;;36.72;16.12
60725;BME280;59881;36.722;-4.462;2022-12-18T09:24:38;101826.03;;;37.39;16.72
60725;BME280;59881;36.722;-4.462;2022-12-18T09:27:04;101902.09;;;38.70;16.34
60725;BME280;59881;36.722;-4.462;2022-12-18T09:29:30;101972.75;;;39.57;15.64
60725;BME280;59881;36.722;-4.462;2022-12-18T09:31:55;101592.06;;;38.22;15.59
60725;BME280;59881;36.722;-4.462;2022-12-18T09:34:21;101921.53;;;40.39;15.04
60725;BME280;59881;36.722;-4.462;2022-12-18T09:36:47;101623.50;;;38.89;15.03
60725;BME280;59881;36.722;-4.462;2022-12-18T09:39:13;101922.69;;;41.25;14.62
60725;BME280;59881;36.722;-4.462;2022-12-18T09:41:40;101923.66;;;41.81;13.86
60725;BME280;59881;36.722;-4.462;2022-12-18T09:46:49;101938.28;;;42.41;13.44
60725;BME280;59881;36.722;-4.462;2022-12-18T09:49:18;101945.47;;;42.82;13.28
60725;BME280;59881;36.722;-4.462;2022-12-18T09:52:00;101927.28;;;43.82;12.87
60725;BME280;59881;36.722;-4.462;2022-12-18T09:54:37;101934.56;;;44.35;12.63
60725;BME280;59881;36.722;-4.462;2022-12-18T09:57:04;101917.00;;;44.58;12.44
60725;BME280;59881;36.722;-4.462;2022-12-18T09:59:35;102019.88;;;44.91;11.86
60725;BME280;59881;36.722;-4.462;2022-12-18T10:02:15;101938.00;;;44.83;12.20
60725;BME280;59881;36.722;-4.462;2022-12-18T10:04:42;101925.38;;;45.05;12.77
60725;BME280;59881;36.722;-4.462;2022-12-18T10:07:29;101915.25;;;45.28;11.87
60725;BME280;59881;36.722;-4.462;2022-12-18T10:10:10;101969.84;;;44.91;12.06
60725;BME280;59881;36.722;-4.462;2022-12-18T10:13:03;101937.59;;;44.57;12.86
60725;BME280;59881;36.722;-4.462;2022-12-18T10:21:18;101907.81;;;44.44;13.03
60725;BME280;59881;36.722;-4.462;2022-12-18T10:23:57;101941.00;;;44.87;12.79
60725;BME280;59881;36.722;-4.462;2022-12-18T10:26:26;101758.03;;;43.58;12.80
60725;BME280;59881;36.722;-4.462;2022-12-18T10:28:53;101906.25;;;45.17;12.59
60725;BME280;59881;36.722;-4.462;2022-12-18T10:31:22;101946.78;;;45.37;12.43
60725;BME280;59881;36.722;-4.462;2022-12-18T10:33:48;101886.44;;;44.58;12.36
60725;BME280;59881;36.722;-4.462;2022-12-18T10:36:14;101760.22;;;42.70;13.36
60725;BME280;59881;36.722;-4.462;2022-12-18T10:38:39;101917.94;;;44.16;13.60
60725;BME280;59881;36.722;-4.462;2022-12-18T10:41:25;101356.13;;;41.15;13.22
60725;BME280;59881;36.722;-4.462;2022-12-18T10:46:45;101885.91;;;44.56;13.12
60725;BME280;59881;36.722;-4.462;2022-12-18T10:51:48;101965.59;;;43.51;13.75
60725;BME280;59881;36.722;-4.462;2022-12-18T10:54:18;101925.66;;;38.88;16.88
60725;BME280;59881;36.722;-4.462;2022-12-18T10:56:44;101914.00;;;29.95;25.64
60725;BME280;59881;36.722;-4.462;2022-12-18T10:59:13;101950.78;;;25.04;32.89
60725;BME280;59881;36.722;-4.462;2022-12-18T11:01:51;102033.56;;;21.99;38.20
60725;BME280;59881;36.722;-4.462;2022-12-18T11:04:22;101943.81;;;20.36;41.72
60725;BME280;59881;36.722;-4.462;2022-12-18T11:07:01;101945.28;;;19.14;44.98
60725;BME280;59881;36.722;-4.462;2022-12-18T11:12:00;101907.13;;;18.02;47.47
60725;BME280;59881;36.722;-4.462;2022-12-18T11:14:33;101909.16;;;17.65;48.90
60725;BME280;59881;36.722;-4.462;2022-12-18T11:17:00;101939.66;;;17.61;49.75
60725;BME280;59881;36.722;-4.462;2022-12-18T11:19:33;101916.69;;;17.35;49.76
60725;BME280;59881;36.722;-4.462;2022-12-18T11:22:00;102109.25;;;17.49;49.88
60725;BME280;59881;36.722;-4.462;2022-12-18T11:24:35;101947.00;;;17.46;50.15
60725;BME280;59881;36.722;-4.462;2022-12-18T11:27:05;101941.72;;;17.33;50.55
60725;BME280;59881;36.722;-4.462;2022-12-18T11:29:36;101946.41;;;17.18;51.43
60725;BME280;59881;36.722;-4.462;2022-12-18T11:34:41;101791.56;;;16.04;51.81
60725;BME280;59881;36.722;-4.462;2022-12-18T11:37:09;101922.63;;;16.67;52.34
60725;BME280;59881;36.722;-4.462;2022-12-18T11:39:49;101391.69;;;13.40;53.18
60725;BME280;59881;36.722;-4.462;2022-12-18T11:50:44;101928.22;;;16.38;55.20
60725;BME280;59881;36.722;-4.462;2022-12-18T11:53:12;101874.06;;;16.15;55.36
60725;BME280;59881;36.722;-4.462;2022-12-18T12:06:48;101926.22;;;16.42;55.76
60725;BME280;59881;36.722;-4.462;2022-12-18T12:23:30;101869.28;;;16.07;57.46
60725;BME280;59881;36.722;-4.462;2022-12-18T12:26:27;101897.13;;;16.27;57.81
60725;BME280;59881;36.722;-4.462;2022-12-18T12:35:00;101899.88;;;16.26;59.12
60725;BME280;59881;36.722;-4.462;2022-12-18T12:40:35;101888.72;;;16.21;60.14
60725;BME280;59881;36.722;-4.462;2022-12-18T12:43:15;101967.41;;;16.23;60.35
60725;BME280;59881;36.722;-4.462;2022-12-18T12:45:59;101874.38;;;16.23;60.83
60725;BME280;59881;36.722;-4.462;2022-12-18T12:48:51;101892.97;;;16.23;61.13
60725;BME280;59881;36.722;-4.462;2022-12-18T12:51:27;101824.38;;;15.79;61.79
60725;BME280;59881;36.722;-4.462;2022-12-18T12:53:54;101854.84;;;15.99;62.11
60725;BME280;59881;36.722;-4.462;2022-12-18T12:56:22;101383.25;;;13.20;62.53
60725;BME280;59881;36.722;-4.462;2022-12-18T13:02:20;101883.94;;;16.26;63.25
60725;BME280;59881;36.722;-4.462;2022-12-18T13:07:06;101786.59;;;15.61;64.63
60725;BME280;59881;36.722;-4.462;2022-12-18T13:10:22;101858.53;;;16.09;65.09
60725;BME280;59881;36.722;-4.462;2022-12-18T13:13:02;101862.25;;;16.06;65.60
60725;BME280;59881;36.722;-4.462;2022-12-18T13:15:43;101715.06;;;15.21;66.15
60725;BME280;59881;36.722;-4.462;2022-12-18T13:20:44;101853.34;;;16.07;66.74
60725;BME280;59881;36.722;-4.462;2022-12-18T13:23:27;101828.59;;;15.94;67.12
60725;BME280;59881;36.722;-4.462;2022-12-18T13:31:12;101815.50;;;15.91;68.73
60725;BME280;59881;36.722;-4.462;2022-12-18T13:33:43;101309.09;;;12.95;68.72
60725;BME280;59881;36.722;-4.462;2022-12-18T13:38:36;101803.19;;;15.90;69.61
60725;BME280;59881;36.722;-4.462;2022-12-18T13:41:22;101832.69;;;16.11;69.73
60725;BME280;59881;36.722;-4.462;2022-12-18T13:43:50;101376.88;;;13.37;70.22
60725;BME280;59881;36.722;-4.462;2022-12-18T13:46:29;101825.69;;;16.10;70.96
60725;BME280;59881;36.722;-4.462;2022-12-18T13:49:14;101794.06;;;15.94;71.47
60725;BME280;59881;36.722;-4.462;2022-12-18T13:51:50;101823.88;;;16.10;72.19
60725;BME280;59881;36.722;-4.462;2022-12-18T13:56:55;101796.09;;;15.78;73.32
60725;BME280;59881;36.722;-4.462;2022-12-18T13:59:34;101831.69;;;16.01;74.05
60725;BME280;59881;36.722;-4.462;2022-12-18T14:02:14;101834.53;;;15.98;74.60
60725;BME280;59881;36.722;-4.462;2022-12-18T14:04:40;101803.53;;;15.72;75.76
60725;BME280;59881;36.722;-4.462;2022-12-18T14:07:21;101706.06;;;15.10;76.34
60725;BME280;59881;36.722;-4.462;2022-12-18T14:09:50;101836.16;;;15.87;77.08
60725;BME280;59881;36.722;-4.462;2022-12-18T14:12:31;101719.00;;;15.15;77.22
60725;BME280;59881;36.722;-4.462;2022-12-18T14:17:59;101131.34;;;11.57;76.98
60725;BME280;59881;36.722;-4.462;2022-12-18T14:20:26;101998.78;;;15.92;78.22
60725;BME280;59881;36.722;-4.462;2022-12-18T14:22:52;101829.47;;;15.82;79.67
60725;BME280;59881;36.722;-4.462;2022-12-18T14:25:28;101821.72;;;15.79;80.64
60725;BME280;59881;36.722;-4.462;2022-12-18T14:30:36;101743.22;;;15.23;81.34
60725;BME280;59881;36.722;-4.462;2022-12-18T14:33:03;101818.41;;;15.75;81.62
60725;BME280;59881;36.722;-4.462;2022-12-18T14:35:29;101779.28;;;15.51;82.03
60725;BME280;59881;36.722;-4.462;2022-12-18T14:38:26;101739.50;;;15.26;82.34
60725;BME280;59881;36.722;-4.462;2022-12-18T14:41:04;101378.16;;;13.17;82.64
60725;BME280;59881;36.722;-4.462;2022-12-18T14:43:35;101776.00;;;15.61;83.02
60725;BME280;59881;36.722;-4.462;2022-12-18T14:46:03;101810.53;;;15.86;83.33
60725;BME280;59881;36.722;-4.462;2022-12-18T14:48:42;101816.34;;;15.91;82.89
60725;BME280;59881;36.722;-4.462;2022-12-18T14:51:17;101820.22;;;15.87;83.13
60725;BME280;59881;36.722;-4.462;2022-12-18T14:53:51;101892.66;;;15.64;83.50